createdAt,value
2019-03-29T00:04:00.988Z,81.56
2019-03-29T00:09:06.894Z,81.63
2019-03-29T00:14:09.988Z,81.75
2019-03-29T00:19:13.463Z,81.79
2019-03-29T00:24:17.366Z,81.57
2019-03-29T00:29:21.174Z,81.85
2019-03-29T00:34:24.811Z,81.99
2019-03-29T00:39:28.469Z,81.96
2019-03-29T00:44:31.454Z,81.97
2019-03-29T00:49:34.801Z,82.11
2019-03-29T00:54:38.641Z,82.13
2019-03-29T00:59:41.636Z,82.21
2019-03-29T01:04:44.739Z,82.13
2019-03-29T01:09:48.594Z,82.15
2019-03-29T01:14:51.547Z,81.99
2019-03-29T01:19:55.936Z,82.15
2019-03-29T01:25:00.436Z,81.94
2019-03-29T01:30:04.795Z,82.50
2019-03-29T01:35:09.341Z,82.41
2019-03-29T01:40:13.405Z,82.83
2019-03-29T01:45:16.540Z,82.96
2019-03-29T01:50:20.162Z,82.93
2019-03-29T01:55:23.326Z,83.33
2019-03-29T02:00:31.931Z,83.31
2019-03-29T02:05:35.268Z,83.42
2019-03-29T02:10:38.867Z,83.51
2019-03-29T02:15:42.475Z,83.55
2019-03-29T02:20:45.886Z,83.58
2019-03-29T02:25:49.422Z,83.44
2019-03-29T02:30:52.523Z,83.40
2019-03-29T02:35:55.526Z,83.50
2019-03-29T02:40:59.159Z,83.34
2019-03-29T02:46:02.851Z,83.40
2019-03-29T02:51:05.835Z,83.35
2019-03-29T02:56:09.292Z,83.26
2019-03-29T03:01:12.544Z,83.25
2019-03-29T03:06:15.639Z,83.17
2019-03-29T03:11:18.752Z,83.22
2019-03-29T03:16:22.933Z,83.11
2019-03-29T03:21:26.637Z,83.02
2019-03-29T03:26:29.712Z,82.98
2019-03-29T03:31:33.877Z,83.04
2019-03-29T03:36:36.896Z,83.06
2019-03-29T03:41:39.889Z,83.09
2019-03-29T03:46:42.891Z,83.02
2019-03-29T03:51:46.334Z,82.98
2019-03-29T03:56:52.430Z,82.90
2019-03-29T04:01:55.434Z,82.62
2019-03-29T04:06:58.527Z,82.70
2019-03-29T04:12:01.516Z,83.07
2019-03-29T04:17:04.477Z,83.15
2019-03-29T04:22:07.826Z,83.61
2019-03-29T04:27:11.916Z,83.71
2019-03-29T04:32:15.571Z,83.80
2019-03-29T04:37:18.624Z,83.93
2019-03-29T04:42:21.669Z,84.09
2019-03-29T04:47:25.289Z,84.07
2019-03-29T04:52:28.260Z,83.94
2019-03-29T04:57:31.915Z,83.94
2019-03-29T05:02:35.000Z,83.82
2019-03-29T05:07:38.861Z,83.80
2019-03-29T05:12:42.907Z,83.70
2019-03-29T05:17:45.902Z,83.59
2019-03-29T05:22:49.487Z,83.34
2019-03-29T05:27:52.508Z,83.19
2019-03-29T05:32:56.522Z,83.32
2019-03-29T05:37:59.605Z,83.14
2019-03-29T05:43:02.819Z,83.30
2019-03-29T05:48:06.150Z,83.28
2019-03-29T05:53:10.566Z,83.27
2019-03-29T05:58:13.636Z,83.25
2019-03-29T06:03:17.587Z,83.06
2019-03-29T06:08:20.581Z,83.05
2019-03-29T06:13:24.540Z,82.68
2019-03-29T06:18:28.303Z,82.83
2019-03-29T06:23:31.288Z,82.67
2019-03-29T06:28:34.283Z,82.39
2019-03-29T06:33:37.362Z,82.58
2019-03-29T06:38:43.480Z,82.28
2019-03-29T06:43:46.813Z,82.39
2019-03-29T06:48:50.806Z,82.10
2019-03-29T06:53:54.347Z,81.98
2019-03-29T06:58:58.392Z,81.82
2019-03-29T07:04:02.279Z,81.69
2019-03-29T07:09:07.242Z,81.63
2019-03-29T07:14:11.029Z,81.53
2019-03-29T07:19:14.022Z,80.98
2019-03-29T07:24:17.438Z,80.98
2019-03-29T07:29:21.487Z,81.00
2019-03-29T07:34:24.807Z,80.51
2019-03-29T07:39:28.206Z,80.55
2019-03-29T07:44:31.218Z,80.03
2019-03-29T07:49:34.215Z,79.83
2019-03-29T07:54:37.926Z,79.88
2019-03-29T07:59:40.980Z,79.21
2019-03-29T08:04:46.525Z,79.25
2019-03-29T08:09:50.324Z,79.17
2019-03-29T08:14:53.644Z,78.32
2019-03-29T08:20:35.622Z,78.70
2019-03-29T08:25:03.231Z,76.99
2019-03-29T08:30:07.414Z,77.52
2019-03-29T08:35:10.588Z,77.53
2019-03-29T08:40:14.190Z,77.36
2019-03-29T08:45:17.209Z,77.25
2019-03-29T08:50:20.302Z,76.54
2019-03-29T08:55:23.328Z,76.58
2019-03-29T09:00:33.239Z,76.18
2019-03-29T09:05:39.183Z,75.77
2019-03-29T09:10:42.429Z,75.59
2019-03-29T09:15:45.647Z,75.69
2019-03-29T09:20:48.738Z,75.41
2019-03-29T09:25:53.683Z,75.15
2019-03-29T09:30:57.018Z,75.08
2019-03-29T09:36:00.143Z,74.31
2019-03-29T09:41:03.245Z,74.50
2019-03-29T09:46:07.301Z,74.90
2019-03-29T09:51:10.484Z,74.77
2019-03-29T09:56:14.649Z,74.81
2019-03-29T10:01:20.633Z,74.31
2019-03-29T10:06:22.903Z,73.60
2019-03-29T10:11:26.284Z,73.29
2019-03-29T10:16:30.187Z,72.17
2019-03-29T10:21:34.244Z,71.52
2019-03-29T10:26:38.147Z,71.85
2019-03-29T10:31:41.161Z,71.28
2019-03-29T10:36:44.238Z,70.00
2019-03-29T10:41:47.981Z,70.19
2019-03-29T10:46:51.785Z,69.91
2019-03-29T10:51:55.198Z,68.69
2019-03-29T10:56:58.225Z,67.02
2019-03-29T11:02:01.821Z,65.80
2019-03-29T11:07:04.941Z,64.64
2019-03-29T11:12:08.339Z,63.67
2019-03-29T11:17:12.613Z,62.35
2019-03-29T11:22:16.323Z,62.28
2019-03-29T11:27:22.463Z,62.17
2019-03-29T11:32:25.858Z,62.21
2019-03-29T11:37:30.637Z,62.17
2019-03-29T11:42:33.704Z,61.22
2019-03-29T11:47:36.785Z,61.19
2019-03-29T11:52:40.120Z,61.56
2019-03-29T11:57:44.127Z,60.89
2019-03-29T12:02:47.383Z,60.94
2019-03-29T12:07:50.415Z,61.21
2019-03-29T12:12:53.509Z,60.64
2019-03-29T12:17:56.635Z,60.83
2019-03-29T12:22:59.831Z,61.26
2019-03-29T12:28:03.895Z,61.02
2019-03-29T12:33:07.065Z,61.07
2019-03-29T12:38:10.300Z,61.46
2019-03-29T12:43:13.844Z,61.27
2019-03-29T12:48:17.738Z,60.98
2019-03-29T12:53:21.615Z,60.78
2019-03-29T12:58:25.281Z,61.28
2019-03-29T13:03:29.015Z,60.69
2019-03-29T13:08:32.772Z,59.78
2019-03-29T13:13:37.053Z,60.33
2019-03-29T13:18:41.173Z,59.67
2019-03-29T13:23:44.491Z,60.29
2019-03-29T13:28:48.200Z,59.88
2019-03-29T13:33:51.814Z,59.96
2019-03-29T13:38:55.379Z,59.76
2019-03-29T13:43:58.541Z,59.57
2019-03-29T13:49:01.647Z,59.45
2019-03-29T13:54:04.853Z,60.03
2019-03-29T13:59:07.843Z,59.66
2019-03-29T14:04:11.584Z,59.46
2019-03-29T14:09:15.610Z,59.41
2019-03-29T14:14:18.945Z,59.19
2019-03-29T14:19:21.994Z,59.46
2019-03-29T14:24:25.658Z,59.54
2019-03-29T14:29:29.257Z,59.13
2019-03-29T14:34:33.349Z,59.10
2019-03-29T14:39:37.134Z,59.05
2019-03-29T14:44:51.808Z,58.82
2019-03-29T14:49:45.973Z,58.26
2019-03-29T14:54:49.084Z,58.56
2019-03-29T14:59:52.335Z,59.01
2019-03-29T15:04:55.516Z,58.98
2019-03-29T15:09:59.995Z,59.39
2019-03-29T15:15:06.677Z,58.82
2019-03-29T15:20:10.645Z,58.49
2019-03-29T15:25:13.982Z,58.39
2019-03-29T15:30:17.294Z,58.04
2019-03-29T15:35:20.993Z,58.17
2019-03-29T15:40:24.346Z,58.09
2019-03-29T15:45:27.387Z,58.39
2019-03-29T15:50:30.431Z,58.43
2019-03-29T15:55:33.720Z,58.28
2019-03-29T16:00:37.702Z,58.13
2019-03-29T16:05:40.714Z,58.44
2019-03-29T16:10:44.383Z,58.60
2019-03-29T16:15:47.689Z,58.75
2019-03-29T16:20:51.118Z,58.71
2019-03-29T16:25:54.245Z,58.77
2019-03-29T16:30:58.095Z,58.92
2019-03-29T16:36:01.526Z,58.91
2019-03-29T16:41:05.284Z,59.11
2019-03-29T16:46:09.600Z,59.07
2019-03-29T16:51:13.033Z,59.24
2019-03-29T16:56:16.620Z,59.17
2019-03-29T17:01:20.384Z,59.00
2019-03-29T17:06:24.020Z,59.19
2019-03-29T17:11:27.380Z,59.32
2019-03-29T17:16:30.907Z,59.62
2019-03-29T17:21:34.142Z,59.80
2019-03-29T17:26:37.344Z,60.00
2019-03-29T17:31:40.941Z,60.23
2019-03-29T17:36:44.621Z,60.40
2019-03-29T17:41:47.905Z,60.27
2019-03-29T17:46:52.877Z,60.56
2019-03-29T17:51:56.566Z,60.58
2019-03-29T17:56:59.951Z,60.64
2019-03-29T18:02:09.128Z,60.80
2019-03-29T18:07:08.203Z,60.81
2019-03-29T18:12:11.585Z,60.62
2019-03-29T18:17:15.454Z,60.83
2019-03-29T18:22:18.758Z,61.13
2019-03-29T18:27:22.039Z,61.08
2019-03-29T18:32:25.336Z,61.19
2019-03-29T18:37:29.770Z,61.20
2019-03-29T18:42:33.644Z,61.48
2019-03-29T18:47:37.178Z,61.52
2019-03-29T18:52:42.766Z,61.75
2019-03-29T18:57:45.121Z,61.77
2019-03-29T19:02:48.719Z,62.00
2019-03-29T19:07:52.259Z,62.15
2019-03-29T19:12:55.365Z,62.16
2019-03-29T19:17:58.391Z,62.47
2019-03-29T19:23:02.074Z,62.58
2019-03-29T19:28:05.129Z,62.80
2019-03-29T19:33:08.407Z,62.99
2019-03-29T19:38:11.392Z,63.23
2019-03-29T19:43:14.719Z,63.35
2019-03-29T19:48:17.738Z,63.59
2019-03-29T19:53:21.605Z,63.78
2019-03-29T19:58:24.876Z,63.96
2019-03-29T20:03:28.210Z,64.09
2019-03-29T20:08:31.980Z,64.15
2019-03-29T20:13:35.602Z,64.23
2019-03-29T20:18:38.568Z,64.36
2019-03-29T20:23:41.699Z,64.47
2019-03-29T20:28:44.748Z,64.60
2019-03-29T20:33:48.020Z,64.74
2019-03-29T20:38:52.058Z,64.87
2019-03-29T20:43:55.960Z,65.11
2019-03-29T20:48:58.940Z,65.27
2019-03-29T20:54:02.346Z,65.55
2019-03-29T20:59:05.707Z,65.68
2019-03-29T21:04:09.000Z,65.89
2019-03-29T21:09:12.936Z,66.00
2019-03-29T21:14:15.971Z,66.17
2019-03-29T21:19:20.215Z,66.18
2019-03-29T21:24:23.695Z,66.28
2019-03-29T21:29:27.315Z,66.20
2019-03-29T21:34:30.402Z,66.40
2019-03-29T21:39:34.024Z,66.69
2019-03-29T21:44:37.069Z,66.76
2019-03-29T21:49:40.989Z,66.89
2019-03-29T21:54:44.490Z,66.92
2019-03-29T21:59:47.992Z,66.98
2019-03-29T22:04:51.596Z,67.09
2019-03-29T22:09:55.738Z,67.32
2019-03-29T22:14:58.912Z,67.54
2019-03-29T22:20:04.313Z,67.68
2019-03-29T22:25:08.690Z,67.75
2019-03-29T22:30:15.730Z,67.73
2019-03-29T22:35:19.365Z,67.85
2019-03-29T22:40:25.385Z,67.87
2019-03-29T22:45:29.579Z,68.02
2019-03-29T22:50:33.295Z,68.02
2019-03-29T22:55:36.799Z,68.34
2019-03-29T23:00:46.959Z,68.57
2019-03-29T23:05:52.021Z,68.74
2019-03-29T23:10:55.432Z,68.85
2019-03-29T23:16:00.524Z,69.08
2019-03-29T23:21:04.164Z,68.99
2019-03-29T23:26:07.897Z,69.22
2019-03-29T23:31:11.008Z,69.18
2019-03-29T23:36:13.965Z,69.14
2019-03-29T23:41:17.408Z,69.30
2019-03-29T23:46:20.485Z,69.59
2019-03-29T23:51:24.370Z,69.94
2019-03-29T23:56:28.202Z,69.97
